Time;durP1;ratioP1;P1;durP2;ratioP2;P2;SDS_P1;SDS_P2;PMS_P1;PMS_P2;Temp;Humidity;BMP_temperature;BMP_pressure;BME280_temperature;BME280_humidity;BME280_pressure;Samples;Min_cycle;Max_cycle;Signal;HPM_P1;HPM_P2
2023/10/28 00:00:33;;;;;;;4.90;2.22;;;;;;;15.22;100.00;92109.84;5063525;28;20575;-88
2023/10/28 00:02:59;;;;;;;7.32;1.95;;;;;;;15.56;100.00;92157.53;5059046;28;20054;-88
2023/10/28 00:05:26;;;;;;;4.82;2.13;;;;;;;15.59;100.00;92167.38;5063407;28;20049;-88
2023/10/28 00:07:53;;;;;;;5.35;2.00;;;;;;;15.59;100.00;92167.38;5065243;28;20044;-88
2023/10/28 00:10:21;;;;;;;5.28;2.13;;;;;;;15.61;100.00;92175.63;5069736;28;20098;-88
2023/10/28 00:12:49;;;;;;;4.63;1.85;;;;;;;15.65;100.00;92181.09;5068421;28;20887;-88
2023/10/28 00:15:24;;;;;;;6.72;2.55;;;;;;;15.38;100.00;92171.88;5063674;28;20056;-87
2023/10/28 00:17:51;;;;;;;;;;;;;;;15.49;100.00;92186.31;5070021;28;20052;-87
2023/10/28 00:20:18;;;;;;;6.78;1.98;;;;;;;15.25;100.00;92170.63;5069566;28;19955;-87
2023/10/28 00:22:46;;;;;;;6.10;2.42;;;;;;;15.05;100.00;92163.69;5069500;28;20113;-88
2023/10/28 00:25:13;;;;;;;5.10;1.70;;;;;;;15.08;100.00;92150.22;5062503;28;20056;-88
2023/10/28 00:27:40;;;;;;;4.05;2.10;;;;;;;15.09;100.00;92149.97;5062910;28;20044;-88
2023/10/28 00:30:09;;;;;;;8.10;2.35;;;;;;;15.24;100.00;92163.91;5066050;28;20127;-88
2023/10/28 00:32:37;;;;;;;6.55;1.73;;;;;;;15.34;100.00;92181.19;5069618;28;20052;-89
2023/10/28 00:35:07;;;;;;;7.82;2.53;;;;;;;15.36;100.00;92187.66;5069381;28;20049;-87
2023/10/28 00:37:34;;;;;;;6.80;2.20;;;;;;;15.32;100.00;92191.03;5063891;28;20126;-88
2023/10/28 00:40:00;;;;;;;5.57;2.17;;;;;;;15.31;100.00;92185.09;5069098;28;20056;-88
2023/10/28 00:42:27;;;;;;;5.18;2.35;;;;;;;15.27;100.00;92194.41;5068829;28;20090;-88
2023/10/28 00:44:57;;;;;;;5.75;1.85;;;;;;;15.27;100.00;92197.00;5067204;28;20566;-89
2023/10/28 00:47:24;;;;;;;5.82;2.20;;;;;;;15.15;100.00;92181.78;5064989;28;20493;-89
2023/10/28 00:49:52;;;;;;;4.97;1.98;;;;;;;14.99;100.00;92160.34;5066694;28;20051;-89
2023/10/28 00:52:19;;;;;;;5.88;2.08;;;;;;;15.09;100.00;92173.25;5067259;28;20127;-89
2023/10/28 00:54:47;;;;;;;4.70;1.98;;;;;;;15.23;100.00;92201.94;5068754;28;20057;-88
2023/10/28 00:57:15;;;;;;;5.05;2.20;;;;;;;15.17;100.00;92182.28;5062460;28;20496;-88
2023/10/28 00:59:42;;;;;;;7.57;2.00;;;;;;;15.31;100.00;92194.66;5069392;28;20045;-89
2023/10/28 01:02:10;;;;;;;6.43;2.45;;;;;;;15.32;100.00;92196.97;5069318;28;20055;-89
2023/10/28 01:04:37;;;;;;;4.88;2.78;;;;;;;15.35;100.00;92204.22;5069152;28;20044;-88
2023/10/28 01:07:06;;;;;;;7.45;2.42;;;;;;;15.15;100.00;92181.00;5063522;28;20048;-88
2023/10/28 01:09:32;;;;;;;4.72;1.73;;;;;;;15.33;100.00;92203.69;5068649;28;20578;-89
2023/10/28 01:11:59;;;;;;;4.63;1.63;;;;;;;15.32;100.00;92206.56;5068168;28;20497;-88
2023/10/28 01:14:26;;;;;;;5.53;1.92;;;;;;;15.26;100.00;92194.66;5063753;28;20044;-88
2023/10/28 01:16:53;;;;;;;4.75;2.08;;;;;;;15.27;100.00;92188.47;5066522;28;20065;-89
2023/10/28 01:19:20;;;;;;;3.65;1.40;;;;;;;15.31;100.00;92200.59;5067326;28;20542;-89
2023/10/28 01:21:48;;;;;;;4.32;1.80;;;;;;;15.19;100.00;92184.63;5064773;28;20048;-87
2023/10/28 01:24:14;;;;;;;3.05;1.50;;;;;;;15.32;100.00;92212.50;5067491;28;20052;-87
2023/10/28 01:26:41;;;;;;;2.30;1.38;;;;;;;15.33;100.00;92210.69;5066568;28;20080;-88
2023/10/28 01:29:10;;;;;;;5.60;1.58;;;;;;;15.34;100.00;92215.63;5065913;28;20055;-87
2023/10/28 01:31:37;;;;;;;7.28;1.85;;;;;;;15.24;100.00;92189.78;5067971;28;20059;-87
2023/10/28 01:34:03;;;;;;;2.78;1.42;;;;;;;15.32;100.00;92209.16;5065034;28;20049;-87
2023/10/28 01:36:30;;;;;;;4.65;2.53;;;;;;;15.26;100.00;92205.00;5059695;28;20509;-87
2023/10/28 01:38:58;;;;;;;3.05;1.42;;;;;;;15.30;100.00;92206.81;5065349;28;20045;-83
2023/10/28 01:41:25;;;;;;;5.10;1.75;;;;;;;15.16;100.00;92190.31;5067024;28;20550;-83
2023/10/28 01:43:52;;;;;;;17.48;9.82;;;;;;;15.27;100.00;92209.16;5062126;28;20095;-89
2023/10/28 01:46:19;;;;;;;8.68;3.85;;;;;;;15.14;100.00;92202.72;5065828;28;20049;-89
2023/10/28 01:48:46;;;;;;;6.00;2.65;;;;;;;15.10;100.00;92207.66;5066479;28;20060;-88
2023/10/28 01:51:13;;;;;;;7.32;2.10;;;;;;;14.89;100.00;92183.63;5067522;28;20095;-88
2023/10/28 01:53:40;;;;;;;6.60;1.70;;;;;;;14.83;100.00;92175.88;5063917;28;20048;-87
2023/10/28 01:56:10;;;;;;;6.38;2.40;;;;;;;15.03;100.00;92213.09;5064764;28;20052;-85
2023/10/28 01:58:37;;;;;;;9.32;2.20;;;;;;;15.03;100.00;92209.72;5067414;28;20452;-88
2023/10/28 02:01:04;;;;;;;5.40;2.10;;;;;;;15.00;100.00;92208.44;5067736;28;20107;-89
2023/10/28 02:03:32;;;;;;;5.88;2.28;;;;;;;15.03;100.00;92204.56;5067722;28;20052;-89
2023/10/28 02:05:58;;;;;;;5.75;2.10;;;;;;;15.02;100.00;92205.59;5063106;28;20465;-89
2023/10/28 02:24:54;;;;;;;7.68;2.50;;;;;;;14.78;100.00;92199.19;5035090;28;20052;-88
2023/10/28 02:27:22;;;;;;;4.47;1.65;;;;;;;14.75;100.00;92204.84;5062494;28;20122;-87
2023/10/28 02:29:50;;;;;;;6.50;2.45;;;;;;;14.70;100.00;92195.28;5063809;28;20094;-88
2023/10/28 02:32:19;;;;;;;7.70;2.88;;;;;;;14.91;100.00;92220.34;5065248;28;20041;-88
2023/10/28 02:34:46;;;;;;;6.28;2.00;;;;;;;14.91;100.00;92217.78;5061398;28;20107;-87
2023/10/28 02:37:15;;;;;;;7.47;1.80;;;;;;;14.92;100.00;92216.72;5065856;28;20056;-89
2023/10/28 02:39:43;;;;;;;5.32;1.90;;;;;;;14.82;100.00;92213.13;5063692;28;20045;-89
2023/10/28 02:42:09;;;;;;;6.47;1.73;;;;;;;14.76;100.00;92188.31;5062312;28;20122;-87
2023/10/28 02:44:37;;;;;;;5.20;1.67;;;;;;;14.96;100.00;92226.28;5064540;28;20553;-88
2023/10/28 02:47:04;;;;;;;4.35;1.75;;;;;;;14.96;100.00;92221.13;5066735;28;20090;-88
2023/10/28 02:49:31;;;;;;;7.30;1.80;;;;;;;14.85;100.00;92200.72;5065214;28;20095;-89
2023/10/28 02:51:58;;;;;;;7.95;2.50;;;;;;;14.95;100.00;92219.56;5062325;28;20106;-89
2023/10/28 02:54:24;;;;;;;4.95;1.45;;;;;;;14.99;100.00;92216.47;5065730;28;21051;-88
2023/10/28 02:56:51;;;;;;;5.60;1.60;;;;;;;14.78;100.00;92177.72;5063052;28;20057;-89
2023/10/28 02:59:18;;;;;;;3.78;1.50;;;;;;;15.02;100.00;92215.94;5060272;28;20573;-89
2023/10/28 03:01:46;;;;;;;3.70;1.60;;;;;;;15.06;100.00;92219.56;5066965;28;20052;-87
2023/10/28 03:04:13;;;;;;;7.80;2.15;;;;;;;15.08;100.00;92207.13;5066855;28;20048;-86
2023/10/28 03:06:40;;;;;;;4.60;1.60;;;;;;;15.08;100.00;92207.91;5062098;28;20049;-87
2023/10/28 03:09:07;;;;;;;7.50;1.73;;;;;;;14.99;100.00;92199.13;5065325;28;20048;-86
2023/10/28 03:11:34;;;;;;;8.43;1.75;;;;;;;15.00;100.00;92198.09;5066761;28;20055;-88
2023/10/28 03:14:00;;;;;;;5.10;2.08;;;;;;;15.13;100.00;92209.72;5063970;28;20496;-85
2023/10/28 03:16:27;;;;;;;5.93;1.95;;;;;;;15.10;100.00;92218.00;5064672;28;20060;-85
2023/10/28 03:18:58;;;;;;;3.78;1.63;;;;;;;15.08;100.00;92214.88;5066995;28;20409;-85
2023/10/28 03:21:25;;;;;;;3.33;1.98;;;;;;;15.09;100.00;92224.22;5062352;28;20045;-84
2023/10/28 03:23:51;;;;;;;5.82;1.60;;;;;;;14.93;100.00;92200.19;5065186;28;20045;-85
2023/10/28 03:26:18;;;;;;;7.72;1.58;;;;;;;15.10;100.00;92223.94;5066594;28;20052;-86
2023/10/28 03:28:46;;;;;;;3.88;1.50;;;;;;;15.04;100.00;92227.56;5062857;28;20048;-86
2023/10/28 03:31:14;;;;;;;5.97;1.63;;;;;;;14.94;100.00;92223.19;5065307;28;20437;-88
2023/10/28 03:33:41;;;;;;;3.22;1.70;;;;;;;15.05;100.00;92239.47;5062515;28;20067;-88
2023/10/28 03:36:12;;;;;;;3.05;1.50;;;;;;;15.06;100.00;92237.66;5061215;28;20501;-87
2023/10/28 03:38:39;;;;;;;6.35;2.05;;;;;;;14.95;100.00;92232.50;5062438;28;20049;-87
2023/10/28 03:41:09;;;;;;;9.70;2.75;;;;;;;14.99;100.00;92252.69;5066409;28;20071;-88
2023/10/28 03:43:35;;;;;;;6.95;2.30;;;;;;;14.91;100.00;92246.22;5065510;28;20063;-88
2023/10/28 03:46:03;;;;;;;6.75;2.25;;;;;;;14.95;100.00;92248.00;5070246;28;20052;-88
2023/10/28 03:48:30;;;;;;;7.70;2.00;;;;;;;14.92;100.00;92248.53;5070501;28;20094;-87
2023/10/28 03:50:57;;;;;;;4.85;1.92;;;;;;;14.85;100.00;92237.69;5066839;28;20049;-87
2023/10/28 03:53:25;;;;;;;3.97;1.65;;;;;;;14.88;100.00;92244.13;5070327;28;20052;-88
2023/10/28 03:55:52;;;;;;;4.55;1.52;;;;;;;14.83;100.00;92237.94;5064144;28;20052;-88
2023/10/28 03:58:19;;;;;;;5.63;2.42;;;;;;;14.83;100.00;92248.25;5069479;28;20056;-88
2023/10/28 04:00:46;;;;;;;4.25;1.52;;;;;;;14.66;100.00;92220.09;5070173;28;20080;-89
2023/10/28 04:03:13;;;;;;;5.13;1.90;;;;;;;14.82;100.00;92251.91;5068122;28;20045;-89
2023/10/28 04:05:39;;;;;;;4.68;2.10;;;;;;;14.82;100.00;92257.06;5065728;28;20088;-89
2023/10/28 04:08:06;;;;;;;9.13;2.35;;;;;;;14.81;100.00;92257.31;5070325;28;20102;-89
2023/10/28 04:10:34;;;;;;;2.78;1.38;;;;;;;14.70;100.00;92241.00;5065764;28;20566;-89
2023/10/28 04:13:01;;;;;;;6.00;1.80;;;;;;;14.75;100.00;92266.09;5068558;28;20102;-88
2023/10/28 04:15:28;;;;;;;6.45;2.17;;;;;;;14.67;100.00;92254.44;5069289;28;20181;-88
2023/10/28 04:17:55;;;;;;;5.20;2.00;;;;;;;14.67;100.00;92262.97;5065246;28;20439;-88
2023/10/28 04:20:23;;;;;;;5.68;1.83;;;;;;;14.07;100.00;92182.59;5069329;28;20143;-88
2023/10/28 04:22:50;;;;;;;5.95;2.17;;;;;;;14.32;100.00;92227.56;5069881;28;20061;-88
2023/10/28 04:25:17;;;;;;;4.13;2.47;;;;;;;14.37;100.00;92246.44;5064734;28;20173;-88
2023/10/28 04:27:45;;;;;;;4.85;2.13;;;;;;;14.46;100.00;92253.66;5067952;28;20497;-88
2023/10/28 04:30:12;;;;;;;4.90;2.30;;;;;;;14.50;100.00;92270.22;5064853;28;20420;-88
2023/10/28 04:32:44;;;;;;;5.32;1.60;;;;;;;14.52;100.00;92274.09;5061437;28;20040;-89
2023/10/28 04:35:11;;;;;;;6.50;1.83;;;;;;;14.57;100.00;92278.47;5066288;28;20143;-88
2023/10/28 04:37:38;;;;;;;3.40;1.45;;;;;;;13.77;100.00;92153.88;5069128;28;20056;-88
2023/10/28 04:40:06;;;;;;;6.03;2.05;;;;;;;14.56;100.00;92276.94;5067618;28;20052;-87
2023/10/28 04:42:33;;;;;;;5.60;1.70;;;;;;;14.57;100.00;92273.31;5065041;28;20051;-89
2023/10/28 04:45:04;;;;;;;7.95;2.20;;;;;;;13.96;100.00;92194.69;5069055;28;20091;-89
2023/10/28 04:47:31;;;;;;;6.97;1.92;;;;;;;14.60;100.00;92282.34;5058924;28;20041;-89
2023/10/28 04:49:58;;;;;;;5.97;1.77;;;;;;;14.60;100.00;92279.78;5065789;28;20060;-88
2023/10/28 04:52:24;;;;;;;9.02;1.92;;;;;;;14.62;100.00;92281.06;5068537;28;20041;-89
2023/10/28 04:54:51;;;;;;;5.63;2.03;;;;;;;14.60;100.00;92280.56;5068174;28;20397;-89
2023/10/28 04:57:18;;;;;;;4.13;2.17;;;;;;;14.57;100.00;92283.66;5063950;28;20107;-88
2023/10/28 04:59:48;;;;;;;4.78;1.80;;;;;;;14.58;100.00;92287.78;5069032;28;20062;-88
2023/10/28 05:02:17;;;;;;;4.88;1.85;;;;;;;14.55;100.00;92286.47;5068973;28;20151;-88
2023/10/28 05:04:43;;;;;;;6.03;2.55;;;;;;;14.54;100.00;92284.19;5068979;28;20048;-89
2023/10/28 05:07:10;;;;;;;5.95;2.38;;;;;;;14.55;100.00;92289.06;5062033;28;20500;-88
2023/10/28 05:09:37;;;;;;;7.25;2.25;;;;;;;14.46;100.00;92284.66;5067409;28;20044;-89
2023/10/28 05:12:04;;;;;;;7.70;3.30;;;;;;;14.55;100.00;92298.66;5067826;28;20819;-83
2023/10/28 05:14:31;;;;;;;8.13;2.90;;;;;;;14.40;100.00;92282.06;5068527;28;20037;-87
2023/10/28 05:16:57;;;;;;;9.32;3.25;;;;;;;14.49;100.00;92300.44;5063663;28;20064;-88
2023/10/28 05:19:25;;;;;;;10.25;3.03;;;;;;;14.48;100.00;92300.72;5067064;28;20617;-88
2023/10/28 05:21:54;;;;;;;6.93;2.55;;;;;;;14.47;100.00;92302.50;5067900;28;20117;-84
2023/10/28 05:24:21;;;;;;;8.30;3.63;;;;;;;14.44;100.00;92308.16;5068267;28;20044;-88
2023/10/28 05:26:47;;;;;;;9.25;3.80;;;;;;;14.32;100.00;92295.50;5063655;28;20122;-88
2023/10/28 05:29:16;;;;;;;10.50;3.83;;;;;;;14.40;100.00;92320.06;5066981;28;20557;-89
2023/10/28 05:31:42;;;;;;;11.30;3.35;;;;;;;14.32;100.00;92305.84;5063456;28;20048;-89
2023/10/28 05:34:09;;;;;;;7.70;2.72;;;;;;;14.43;100.00;92322.13;5066913;28;21054;-88
2023/10/28 05:36:37;;;;;;;11.10;3.67;;;;;;;14.21;100.00;92302.44;5075793;28;20044;-89
2023/10/28 05:39:04;;;;;;;10.65;4.45;;;;;;;14.27;100.00;92309.16;5069271;28;20561;-89
2023/10/28 05:41:32;;;;;;;11.00;4.60;;;;;;;14.36;100.00;92340.47;5068393;28;20049;-89
2023/10/28 05:44:10;;;;;;;10.60;4.25;;;;;;;13.42;100.00;92243.03;5075781;28;20462;-89
2023/10/28 05:46:37;;;;;;;14.95;5.15;;;;;;;13.89;100.00;92348.03;5083645;28;20109;-88
2023/10/28 05:49:03;;;;;;;11.50;3.95;;;;;;;13.76;100.00;92351.06;5084155;28;20089;-88
2023/10/28 05:51:35;;;;;;;9.88;3.85;;;;;;;13.76;100.00;92358.81;5074150;28;20092;-89
2023/10/28 05:54:04;;;;;;;9.88;3.42;;;;;;;13.73;100.00;92362.66;5068824;28;20044;-90
2023/10/28 05:56:31;;;;;;;9.32;3.40;;;;;;;13.72;100.00;92355.97;5067707;28;20044;-89
2023/10/28 05:58:58;;;;;;;12.00;3.83;;;;;;;13.86;100.00;92374.38;5074208;28;20457;-89
2023/10/28 06:01:25;;;;;;;11.55;4.05;;;;;;;13.70;100.00;92334.00;5074402;28;20844;-89
2023/10/28 06:03:52;;;;;;;13.85;3.75;;;;;;;13.90;100.00;92341.06;5068501;28;20048;-89
2023/10/28 06:06:18;;;;;;;10.85;3.15;;;;;;;13.76;100.00;92307.97;5072633;28;20040;-89
2023/10/28 06:08:45;;;;;;;17.05;3.92;;;;;;;14.38;100.00;92366.81;5071338;28;20048;-87
2023/10/28 06:11:14;;;;;;;9.15;3.47;;;;;;;14.57;100.00;92379.25;5072157;28;20052;-87
2023/10/28 06:13:41;;;;;;;8.98;3.05;;;;;;;14.65;100.00;92370.25;5068697;28;20055;-89
2023/10/28 06:16:07;;;;;;;9.23;2.90;;;;;;;14.68;100.00;92357.59;5071402;28;20508;-88
2023/10/28 06:18:49;;;;;;;12.98;3.83;;;;;;;14.99;100.00;92377.56;5071094;28;20658;-88
2023/10/28 06:21:16;;;;;;;8.38;3.33;;;;;;;14.90;100.00;92351.44;5076137;28;20101;-88
2023/10/28 06:23:43;;;;;;;14.15;4.13;;;;;;;15.30;100.00;92390.53;5068523;28;20051;-88
2023/10/28 06:26:12;;;;;;;6.95;2.80;;;;;;;15.24;100.00;92368.28;5066724;28;20044;-88
2023/10/28 06:28:41;;;;;;;6.90;3.05;;;;;;;15.38;100.00;92373.72;5075648;28;20511;-89
2023/10/28 06:31:08;;;;;;;11.85;2.70;;;;;;;15.73;100.00;92407.56;5081333;28;20408;-89
2023/10/28 06:33:35;;;;;;;6.97;2.20;;;;;;;15.89;100.00;92408.34;5067853;28;20040;-88
2023/10/28 06:36:10;;;;;;;4.72;1.55;;;;;;;16.05;100.00;92400.56;5071717;28;20045;-87
2023/10/28 06:38:37;;;;;;;3.67;1.60;;;;;;;16.16;100.00;92395.06;5074358;28;20044;-90
2023/10/28 06:41:04;;;;;;;3.10;1.27;;;;;;;16.34;100.00;92402.53;5068368;28;21013;-89
2023/10/28 06:43:36;;;;;;;6.60;1.45;;;;;;;16.46;100.00;92395.22;5069981;28;20058;-89
2023/10/28 06:46:25;;;;;;;7.65;2.70;;;;;;;15.69;100.00;92270.09;5072742;28;20152;-88
2023/10/28 06:48:52;;;;;;;6.60;2.15;;;;;;;16.92;100.00;92419.38;5069590;28;20040;-89
2023/10/28 06:51:19;;;;;;;4.60;1.50;;;;;;;17.09;100.00;92419.81;5068299;28;20101;-88
2023/10/28 06:53:46;;;;;;;5.65;1.45;;;;;;;17.32;100.00;92425.38;5068786;28;20052;-88
2023/10/28 06:56:12;;;;;;;5.55;1.63;;;;;;;17.51;100.00;92424.72;5072786;28;20117;-88
2023/10/28 06:58:41;;;;;;;5.70;1.73;;;;;;;17.71;100.00;92428.19;5069307;28;20052;-87
2023/10/28 07:01:09;;;;;;;5.97;1.50;;;;;;;17.87;100.00;92429.59;5068971;28;20056;-87
2023/10/28 07:03:38;;;;;;;6.32;2.05;;;;;;;18.05;100.00;92424.00;5061721;28;20126;-89
2023/10/28 07:06:05;;;;;;;8.80;1.67;;;;;;;18.27;100.00;92439.13;5073276;28;20098;-88
2023/10/28 07:08:31;;;;;;;5.75;1.65;;;;;;;18.49;100.00;92445.66;5067784;28;20143;-88
2023/10/28 07:10:59;;;;;;;8.57;1.70;;;;;;;18.55;100.00;92421.13;5066717;28;20564;-88
2023/10/28 07:13:26;;;;;;;7.00;1.58;;;;;;;18.91;99.49;92457.13;5069229;28;20087;-88
2023/10/28 07:16:02;;;;;;;5.57;1.70;;;;;;;18.75;98.11;92411.53;5066834;28;20056;-87
2023/10/28 07:18:29;;;;;;;10.43;1.95;;;;;;;19.32;97.18;92470.66;5071174;28;20088;-89
2023/10/28 07:20:57;;;;;;;3.60;1.08;;;;;;;19.41;93.57;92448.16;5068560;28;20049;-88
2023/10/28 07:23:26;;;;;;;2.85;1.20;;;;;;;19.59;90.21;92448.41;5080600;28;20044;-87
2023/10/28 07:25:53;;;;;;;2.97;0.75;;;;;;;19.74;88.50;92463.03;5076822;28;20055;-87
2023/10/28 07:28:21;;;;;;;8.85;1.08;;;;;;;19.85;88.41;92461.78;5075787;28;20102;-87
2023/10/28 07:30:50;;;;;;;2.22;0.60;;;;;;;19.82;87.68;92443.34;5071128;28;20052;-86
2023/10/28 07:33:18;;;;;;;5.13;0.70;;;;;;;19.89;85.61;92433.31;5074441;28;20159;-85
2023/10/28 07:35:45;;;;;;;7.43;1.10;;;;;;;20.11;85.58;92450.19;5074007;28;20101;-86
2023/10/28 07:38:15;;;;;;;3.95;0.85;;;;;;;20.25;84.43;92453.59;5075325;28;20048;-87
2023/10/28 07:40:42;;;;;;;3.90;1.00;;;;;;;20.42;84.36;92473.13;5075909;28;20094;-88
2023/10/28 07:43:10;;;;;;;4.72;0.75;;;;;;;20.48;82.61;92466.75;5071496;28;20048;-88
2023/10/28 07:45:36;;;;;;;3.88;0.88;;;;;;;20.61;83.01;92478.25;5073444;28;20051;-87
2023/10/28 07:48:04;;;;;;;3.08;0.75;;;;;;;20.75;82.53;92483.47;5085316;28;20090;-88
2023/10/28 07:50:30;;;;;;;6.35;1.25;;;;;;;20.96;80.98;92480.47;5077286;28;20056;-87
2023/10/28 07:52:57;;;;;;;2.75;0.50;;;;;;;21.08;79.62;92472.13;5071033;28;20045;-90
2023/10/28 07:55:25;;;;;;;4.72;1.00;;;;;;;21.21;78.45;92481.00;5075379;28;20052;-87
2023/10/28 07:57:54;;;;;;;5.55;1.35;;;;;;;20.62;75.96;92390.28;5070394;28;20079;-87
2023/10/28 08:00:22;;;;;;;4.78;0.98;;;;;;;21.44;77.25;92494.88;5076820;28;20044;-88
2023/10/28 08:02:49;;;;;;;4.53;0.90;;;;;;;21.55;77.16;92492.03;5079164;28;20097;-87
2023/10/28 08:05:19;;;;;;;4.25;0.88;;;;;;;21.56;77.24;92483.16;5069155;28;20520;-87
2023/10/28 08:07:50;;;;;;;4.68;0.80;;;;;;;21.83;76.54;92497.19;5076604;28;20118;-88
2023/10/28 08:10:17;;;;;;;8.05;1.05;;;;;;;21.81;75.21;92481.03;5071249;28;20057;-88
2023/10/28 08:15:29;;;;;;;;;;;;;;;21.98;73.85;92507.28;5076715;28;20166;-86
2023/10/28 08:17:56;;;;;;;3.67;0.80;;;;;;;21.91;73.93;92490.47;5075000;28;20010;-88
2023/10/28 08:20:23;;;;;;;5.18;1.00;;;;;;;21.93;73.19;92498.78;5071360;28;20084;-87
2023/10/28 08:22:50;;;;;;;3.15;0.75;;;;;;;22.03;73.22;92507.16;5083934;28;20071;-89
2023/10/28 08:25:16;;;;;;;3.85;0.73;;;;;;;22.11;73.24;92505.66;5070986;28;20459;-90
2023/10/28 08:27:47;;;;;;;3.65;0.73;;;;;;;22.17;72.99;92506.31;5083657;28;20102;-89
2023/10/28 08:30:17;;;;;;;5.88;0.88;;;;;;;22.31;71.75;92518.53;5080753;28;20048;-90
2023/10/28 08:32:44;;;;;;;12.18;1.73;;;;;;;22.36;71.01;92510.56;5070278;28;20504;-87
2023/10/28 08:35:10;;;;;;;4.60;1.10;;;;;;;22.42;70.49;92514.59;5069697;28;20102;-87
2023/10/28 08:37:37;;;;;;;6.43;1.15;;;;;;;22.33;71.20;92483.16;5071633;28;20102;-87
2023/10/28 08:40:07;;;;;;;8.30;0.90;;;;;;;22.65;69.78;92525.03;5069387;28;20048;-89
2023/10/28 08:42:53;;;;;;;3.53;1.25;;;;;;;22.10;70.67;92453.66;5077099;28;20055;-89
2023/10/28 08:45:23;;;;;;;;;;;;;;;22.76;70.00;92525.53;5075769;28;20050;-87
2023/10/28 08:47:51;;;;;;;15.18;2.20;;;;;;;22.57;70.77;92510.09;5074730;28;19923;-87
2023/10/28 08:50:20;;;;;;;9.57;1.05;;;;;;;22.63;69.62;92527.94;5080898;28;20048;-90
2023/10/28 08:52:48;;;;;;;6.15;1.10;;;;;;;22.63;69.56;92527.94;5071127;28;20488;-90
2023/10/28 08:55:15;;;;;;;6.35;1.00;;;;;;;22.63;69.22;92525.34;5079353;28;20051;-87
2023/10/28 08:57:44;;;;;;;3.60;1.40;;;;;;;22.45;68.28;92505.38;5069788;28;20455;-87
2023/10/28 09:00:15;;;;;;;5.03;1.17;;;;;;;22.71;68.08;92536.91;5071616;28;20131;-88
2023/10/28 09:02:45;;;;;;;5.63;1.40;;;;;;;22.72;66.44;92537.69;5074023;28;20050;-86
2023/10/28 09:05:15;;;;;;;5.72;0.75;;;;;;;22.65;64.24;92531.06;5077775;28;20165;-87
2023/10/28 09:07:43;;;;;;;2.35;0.95;;;;;;;22.75;61.11;92552.78;5076398;28;20079;-88
2023/10/28 09:10:11;;;;;;;3.78;0.60;;;;;;;22.68;62.00;92540.91;5073481;28;20512;-87
2023/10/28 09:12:38;;;;;;;3.63;0.82;;;;;;;22.75;62.14;92547.56;5072784;28;20056;-85
2023/10/28 09:15:05;;;;;;;3.80;1.05;;;;;;;22.79;62.24;92548.50;5073701;28;20052;-87
2023/10/28 09:17:34;;;;;;;3.05;0.60;;;;;;;22.83;63.07;92546.81;5070631;28;20053;-88
2023/10/28 09:20:05;;;;;;;1.52;0.60;;;;;;;22.54;62.90;92496.50;5070862;28;20048;-87
2023/10/28 09:22:33;;;;;;;2.83;0.70;;;;;;;22.98;63.69;92548.25;5072683;28;20050;-89
2023/10/28 09:25:00;;;;;;;4.13;1.23;;;;;;;22.77;63.45;92516.63;5073233;28;20056;-87
2023/10/28 09:27:27;;;;;;;4.90;0.60;;;;;;;22.88;61.33;92548.53;5069676;28;20424;-86
2023/10/28 09:30:05;;;;;;;7.43;1.35;;;;;;;22.88;62.92;92544.06;5071764;28;20060;-88
2023/10/28 09:32:34;;;;;;;3.05;1.02;;;;;;;22.95;63.92;92536.53;5073762;28;20043;-86
2023/10/28 09:35:05;;;;;;;2.45;0.90;;;;;;;22.96;60.17;92537.31;5082701;28;20546;-86
2023/10/28 09:37:33;;;;;;;4.65;0.77;;;;;;;22.95;60.55;92533.13;5080497;28;20048;-86
2023/10/28 09:40:02;;;;;;;3.25;0.68;;;;;;;23.17;60.09;92541.97;5068888;28;20056;-86
2023/10/28 09:42:31;;;;;;;5.88;1.00;;;;;;;23.31;60.10;92545.28;5085753;28;20048;-87
2023/10/28 09:44:59;;;;;;;3.38;0.80;;;;;;;23.42;58.75;92540.50;5076227;28;20141;-86
2023/10/28 09:47:32;;;;;;;4.13;0.68;;;;;;;23.53;58.32;92548.88;5074605;28;20482;-87
2023/10/28 09:50:06;;;;;;;4.78;1.50;;;;;;;23.56;57.01;92553.47;5065243;28;20044;-87
2023/10/28 09:52:36;;;;;;;6.60;1.10;;;;;;;23.35;58.35;92514.00;5075914;28;20059;-86
2023/10/28 09:55:06;;;;;;;3.60;0.77;;;;;;;23.54;58.01;92552.25;5067766;28;20129;-89
2023/10/28 09:57:34;;;;;;;3.55;0.80;;;;;;;23.49;58.96;92546.09;5070354;28;20129;-84
2023/10/28 10:00:09;;;;;;;6.32;1.23;;;;;;;23.46;58.08;92533.59;5065386;28;20139;-85
2023/10/28 10:02:56;;;;;;;6.15;0.75;;;;;;;23.12;58.65;92487.13;5066303;28;20106;-86
2023/10/28 10:05:31;;;;;;;3.53;0.63;;;;;;;23.48;57.19;92525.44;5069350;28;20054;-85
2023/10/28 10:07:58;;;;;;;5.32;0.85;;;;;;;23.38;57.24;92513.41;5069047;28;20567;-87
2023/10/28 10:10:24;;;;;;;7.03;0.90;;;;;;;23.49;57.12;92537.44;5068242;28;20059;-87
2023/10/28 10:13:02;;;;;;;4.07;0.65;;;;;;;23.66;54.11;92554.25;5070368;28;20527;-88
2023/10/28 10:15:37;;;;;;;3.03;0.57;;;;;;;23.64;53.55;92551.19;5070010;28;20577;-87
2023/10/28 10:18:10;;;;;;;5.78;0.98;;;;;;;23.49;52.72;92519.88;5069768;28;20056;-88
2023/10/28 10:20:44;;;;;;;4.35;0.70;;;;;;;23.65;54.73;92531.75;5068949;28;20083;-88
2023/10/28 10:23:10;;;;;;;2.33;0.65;;;;;;;23.74;55.73;92535.91;5069531;28;20148;-87
2023/10/28 10:25:39;;;;;;;4.85;0.65;;;;;;;23.58;55.16;92506.78;5071203;28;20675;-85
2023/10/28 10:28:11;;;;;;;4.35;0.80;;;;;;;23.67;55.25;92525.13;5070033;28;20048;-87
2023/10/28 10:30:38;;;;;;;4.50;0.82;;;;;;;23.74;55.27;92529.88;5069042;28;20616;-87
2023/10/28 10:33:05;;;;;;;5.13;1.23;;;;;;;23.80;55.17;92535.75;5068679;28;20051;-87
2023/10/28 10:35:32;;;;;;;3.28;0.70;;;;;;;23.80;53.87;92522.66;5068700;28;20122;-87
2023/10/28 10:38:05;;;;;;;4.00;0.95;;;;;;;23.86;54.84;92524.81;5069415;28;20104;-87
2023/10/28 10:40:33;;;;;;;5.97;1.83;;;;;;;23.95;55.51;92524.03;5073497;28;20048;-84
2023/10/28 10:43:06;;;;;;;3.25;0.70;;;;;;;23.94;54.64;92540.84;5069333;28;20131;-88
2023/10/28 10:45:34;;;;;;;6.28;1.00;;;;;;;23.87;53.10;92528.19;5072440;28;20539;-86
2023/10/28 10:48:02;;;;;;;2.30;0.80;;;;;;;23.52;53.59;92481.03;5069338;28;20121;-86
2023/10/28 10:50:31;;;;;;;5.30;2.08;;;;;;;23.81;53.62;92530.22;5066373;28;20041;-87
2023/10/28 10:52:58;;;;;;;2.88;0.80;;;;;;;23.80;54.33;92528.69;5070415;28;20153;-86
2023/10/28 10:55:28;;;;;;;5.07;0.85;;;;;;;23.65;55.65;92510.78;5071255;28;20889;-86
2023/10/28 10:57:55;;;;;;;7.47;1.35;;;;;;;23.76;56.16;92527.75;5067976;28;20098;-85
2023/10/28 11:00:23;;;;;;;4.60;0.95;;;;;;;23.70;54.21;92536.84;5072918;28;20059;-86
2023/10/28 11:02:50;;;;;;;4.85;0.70;;;;;;;23.64;54.03;92543.31;5069144;28;20048;-86
2023/10/28 11:05:18;;;;;;;4.93;1.02;;;;;;;23.65;54.82;92527.25;5068029;28;20125;-86
2023/10/28 11:07:46;;;;;;;3.85;1.00;;;;;;;23.62;53.94;92530.53;5070121;28;20048;-86
2023/10/28 11:10:13;;;;;;;7.80;1.00;;;;;;;23.67;54.32;92529.59;5068113;28;20684;-85
2023/10/28 11:12:42;;;;;;;2.72;1.10;;;;;;;23.62;54.78;92526.03;5071453;28;20055;-85
2023/10/28 11:15:10;;;;;;;4.22;0.80;;;;;;;23.44;54.78;92527.88;5071516;28;20087;-86
2023/10/28 11:17:37;;;;;;;2.55;0.60;;;;;;;23.41;54.50;92528.50;5070419;28;20088;-86
2023/10/28 11:20:06;;;;;;;4.15;1.45;;;;;;;23.19;53.49;92522.25;5071122;28;20054;-87
2023/10/28 11:22:32;;;;;;;4.13;1.00;;;;;;;23.22;53.33;92524.28;5067589;28;20166;-84
2023/10/28 11:24:59;;;;;;;;;;;;;;;23.29;53.90;92529.06;5070083;28;20324;-85
2023/10/28 11:27:27;;;;;;;4.82;0.80;;;;;;;23.23;53.96;92531.06;5068366;28;20065;-85
2023/10/28 11:29:56;;;;;;;4.70;0.95;;;;;;;23.23;54.33;92530.28;5073995;28;20135;-85
2023/10/28 11:32:24;;;;;;;4.88;1.13;;;;;;;23.28;53.76;92535.38;5070747;28;20616;-84
2023/10/28 11:34:53;;;;;;;3.53;0.70;;;;;;;23.27;54.38;92525.22;5076270;28;20093;-85
2023/10/28 11:37:20;;;;;;;1.90;0.50;;;;;;;23.32;53.72;92543.41;5069067;28;20393;-83
2023/10/28 11:39:49;;;;;;;3.70;0.65;;;;;;;23.07;53.49;92520.25;5069442;28;20084;-84
2023/10/28 11:42:20;;;;;;;4.93;1.10;;;;;;;22.80;54.16;92481.97;5067014;28;20048;-83
2023/10/28 11:44:51;;;;;;;4.03;0.80;;;;;;;23.18;54.93;92540.91;5081258;28;20049;-86
2023/10/28 11:47:23;;;;;;;6.22;1.13;;;;;;;22.81;55.63;92518.31;5067681;28;20113;-87
2023/10/28 11:49:50;;;;;;;4.72;0.93;;;;;;;22.88;56.58;92535.44;5069024;28;20052;-85
2023/10/28 11:52:17;;;;;;;5.10;0.95;;;;;;;22.92;57.70;92534.50;5067506;28;20139;-85